sensor_id;sensor_type;location;lat;lon;timestamp;P1;durP1;ratioP1;P2;durP2;ratioP2
60030;SDS011;45901;47.600;9.890;2023-09-07T00:01:34;6.53;;;4.37;;
60030;SDS011;45901;47.600;9.890;2023-09-07T00:04:01;7.83;;;4.80;;
60030;SDS011;45901;47.600;9.890;2023-09-07T00:06:29;6.90;;;4.00;;
60030;SDS011;45901;47.600;9.890;2023-09-07T00:08:56;5.70;;;3.53;;
60030;SDS011;45901;47.600;9.890;2023-09-07T00:11:25;7.83;;;4.30;;
60030;SDS011;45901;47.600;9.890;2023-09-07T00:13:52;6.10;;;4.53;;
60030;SDS011;45901;47.600;9.890;2023-09-07T00:16:19;5.17;;;3.90;;
60030;SDS011;45901;47.600;9.890;2023-09-07T00:18:46;7.60;;;4.50;;
60030;SDS011;45901;47.600;9.890;2023-09-07T00:21:13;8.00;;;4.60;;
60030;SDS011;45901;47.600;9.890;2023-09-07T00:23:40;5.47;;;4.07;;
60030;SDS011;45901;47.600;9.890;2023-09-07T00:26:07;7.37;;;4.00;;
60030;SDS011;45901;47.600;9.890;2023-09-07T00:28:35;5.50;;;3.70;;
60030;SDS011;45901;47.600;9.890;2023-09-07T00:31:02;5.93;;;3.97;;
60030;SDS011;45901;47.600;9.890;2023-09-07T00:33:29;6.67;;;3.90;;
60030;SDS011;45901;47.600;9.890;2023-09-07T00:35:56;6.60;;;3.90;;
60030;SDS011;45901;47.600;9.890;2023-09-07T00:38:23;8.67;;;4.90;;
60030;SDS011;45901;47.600;9.890;2023-09-07T00:40:50;6.50;;;4.23;;
60030;SDS011;45901;47.600;9.890;2023-09-07T00:43:17;7.73;;;4.30;;
60030;SDS011;45901;47.600;9.890;2023-09-07T00:45:45;10.63;;;4.70;;
60030;SDS011;45901;47.600;9.890;2023-09-07T00:48:12;8.23;;;5.00;;
60030;SDS011;45901;47.600;9.890;2023-09-07T00:50:41;5.60;;;4.27;;
60030;SDS011;45901;47.600;9.890;2023-09-07T00:53:08;6.20;;;3.97;;
60030;SDS011;45901;47.600;9.890;2023-09-07T00:55:37;5.23;;;4.10;;
60030;SDS011;45901;47.600;9.890;2023-09-07T00:58:04;4.63;;;3.93;;
60030;SDS011;45901;47.600;9.890;2023-09-07T01:00:31;5.10;;;4.20;;
60030;SDS011;45901;47.600;9.890;2023-09-07T01:03:01;5.67;;;4.60;;
60030;SDS011;45901;47.600;9.890;2023-09-07T01:05:30;7.47;;;4.57;;
60030;SDS011;45901;47.600;9.890;2023-09-07T01:08:08;5.43;;;4.00;;
60030;SDS011;45901;47.600;9.890;2023-09-07T01:10:43;8.47;;;4.30;;
60030;SDS011;45901;47.600;9.890;2023-09-07T01:13:10;5.80;;;4.30;;
60030;SDS011;45901;47.600;9.890;2023-09-07T01:15:37;6.30;;;4.57;;
60030;SDS011;45901;47.600;9.890;2023-09-07T01:18:06;5.77;;;4.37;;
60030;SDS011;45901;47.600;9.890;2023-09-07T01:20:35;6.20;;;4.57;;
60030;SDS011;45901;47.600;9.890;2023-09-07T01:23:06;5.90;;;4.00;;
60030;SDS011;45901;47.600;9.890;2023-09-07T01:25:34;6.40;;;4.30;;
60030;SDS011;45901;47.600;9.890;2023-09-07T01:28:01;7.60;;;4.20;;
60030;SDS011;45901;47.600;9.890;2023-09-07T01:30:28;6.67;;;4.50;;
60030;SDS011;45901;47.600;9.890;2023-09-07T01:32:55;6.20;;;5.00;;
60030;SDS011;45901;47.600;9.890;2023-09-07T01:35:22;6.93;;;4.60;;
60030;SDS011;45901;47.600;9.890;2023-09-07T01:37:51;6.00;;;4.67;;
60030;SDS011;45901;47.600;9.890;2023-09-07T01:40:19;8.73;;;4.90;;
60030;SDS011;45901;47.600;9.890;2023-09-07T01:42:47;8.07;;;4.50;;
60030;SDS011;45901;47.600;9.890;2023-09-07T01:45:14;5.23;;;3.80;;
60030;SDS011;45901;47.600;9.890;2023-09-07T01:47:41;5.87;;;4.30;;
60030;SDS011;45901;47.600;9.890;2023-09-07T01:50:09;6.53;;;4.77;;
60030;SDS011;45901;47.600;9.890;2023-09-07T01:52:36;6.17;;;4.30;;
60030;SDS011;45901;47.600;9.890;2023-09-07T01:55:03;6.80;;;4.70;;
60030;SDS011;45901;47.600;9.890;2023-09-07T01:57:32;5.50;;;4.43;;
60030;SDS011;45901;47.600;9.890;2023-09-07T01:59:59;6.37;;;4.20;;
60030;SDS011;45901;47.600;9.890;2023-09-07T02:02:26;6.10;;;4.27;;
60030;SDS011;45901;47.600;9.890;2023-09-07T02:04:53;7.53;;;4.00;;
60030;SDS011;45901;47.600;9.890;2023-09-07T02:07:20;7.10;;;4.73;;
60030;SDS011;45901;47.600;9.890;2023-09-07T02:09:47;6.43;;;3.90;;
60030;SDS011;45901;47.600;9.890;2023-09-07T02:12:14;4.40;;;3.93;;
60030;SDS011;45901;47.600;9.890;2023-09-07T02:14:42;5.60;;;4.43;;
60030;SDS011;45901;47.600;9.890;2023-09-07T02:17:09;4.80;;;4.13;;
60030;SDS011;45901;47.600;9.890;2023-09-07T02:19:39;6.83;;;4.73;;
60030;SDS011;45901;47.600;9.890;2023-09-07T02:22:06;6.67;;;4.27;;
60030;SDS011;45901;47.600;9.890;2023-09-07T02:24:33;7.83;;;4.70;;
60030;SDS011;45901;47.600;9.890;2023-09-07T02:27:00;5.20;;;4.53;;
60030;SDS011;45901;47.600;9.890;2023-09-07T02:29:27;10.90;;;4.87;;
60030;SDS011;45901;47.600;9.890;2023-09-07T02:31:56;4.57;;;3.80;;
60030;SDS011;45901;47.600;9.890;2023-09-07T02:34:23;11.60;;;4.60;;
60030;SDS011;45901;47.600;9.890;2023-09-07T02:36:50;5.33;;;4.57;;
60030;SDS011;45901;47.600;9.890;2023-09-07T02:48:39;10.40;;;4.80;;
60030;SDS011;45901;47.600;9.890;2023-09-07T02:51:06;7.20;;;4.53;;
60030;SDS011;45901;47.600;9.890;2023-09-07T02:53:33;7.57;;;4.67;;
60030;SDS011;45901;47.600;9.890;2023-09-07T02:56:00;5.40;;;3.97;;
60030;SDS011;45901;47.600;9.890;2023-09-07T02:58:29;5.53;;;4.43;;
60030;SDS011;45901;47.600;9.890;2023-09-07T03:00:56;5.73;;;4.13;;
60030;SDS011;45901;47.600;9.890;2023-09-07T03:03:24;5.73;;;4.30;;
60030;SDS011;45901;47.600;9.890;2023-09-07T03:05:54;6.07;;;4.50;;
60030;SDS011;45901;47.600;9.890;2023-09-07T03:08:21;5.20;;;4.30;;
60030;SDS011;45901;47.600;9.890;2023-09-07T03:10:49;6.10;;;4.13;;
60030;SDS011;45901;47.600;9.890;2023-09-07T03:13:16;10.50;;;4.53;;
60030;SDS011;45901;47.600;9.890;2023-09-07T03:15:43;5.40;;;4.47;;
60030;SDS011;45901;47.600;9.890;2023-09-07T03:18:10;5.20;;;4.30;;
60030;SDS011;45901;47.600;9.890;2023-09-07T03:20:37;7.63;;;4.70;;
60030;SDS011;45901;47.600;9.890;2023-09-07T03:23:05;5.47;;;4.40;;
60030;SDS011;45901;47.600;9.890;2023-09-07T03:25:33;5.40;;;4.53;;
60030;SDS011;45901;47.600;9.890;2023-09-07T03:27:59;6.97;;;4.77;;
60030;SDS011;45901;47.600;9.890;2023-09-07T03:30:26;6.37;;;4.60;;
60030;SDS011;45901;47.600;9.890;2023-09-07T03:32:53;5.20;;;4.10;;
60030;SDS011;45901;47.600;9.890;2023-09-07T03:35:20;4.90;;;4.40;;
60030;SDS011;45901;47.600;9.890;2023-09-07T03:37:48;7.20;;;4.40;;
60030;SDS011;45901;47.600;9.890;2023-09-07T03:40:16;8.60;;;4.30;;
60030;SDS011;45901;47.600;9.890;2023-09-07T03:42:42;7.37;;;4.27;;
60030;SDS011;45901;47.600;9.890;2023-09-07T03:45:11;6.97;;;4.90;;
60030;SDS011;45901;47.600;9.890;2023-09-07T03:47:38;7.10;;;4.20;;
60030;SDS011;45901;47.600;9.890;2023-09-07T03:50:05;5.53;;;4.67;;
60030;SDS011;45901;47.600;9.890;2023-09-07T03:52:33;6.00;;;4.13;;
60030;SDS011;45901;47.600;9.890;2023-09-07T03:55:00;7.67;;;4.60;;
60030;SDS011;45901;47.600;9.890;2023-09-07T03:57:29;6.43;;;5.07;;
60030;SDS011;45901;47.600;9.890;2023-09-07T03:59:56;6.03;;;4.67;;
60030;SDS011;45901;47.600;9.890;2023-09-07T04:02:23;7.07;;;4.30;;
60030;SDS011;45901;47.600;9.890;2023-09-07T04:04:51;9.90;;;4.87;;
60030;SDS011;45901;47.600;9.890;2023-09-07T04:07:20;6.20;;;4.60;;
60030;SDS011;45901;47.600;9.890;2023-09-07T04:09:47;7.73;;;4.10;;
60030;SDS011;45901;47.600;9.890;2023-09-07T04:12:16;9.40;;;4.67;;
60030;SDS011;45901;47.600;9.890;2023-09-07T04:14:44;5.93;;;4.73;;
60030;SDS011;45901;47.600;9.890;2023-09-07T04:17:11;5.23;;;4.20;;
60030;SDS011;45901;47.600;9.890;2023-09-07T04:19:38;6.33;;;4.80;;
60030;SDS011;45901;47.600;9.890;2023-09-07T04:22:05;6.40;;;4.80;;
60030;SDS011;45901;47.600;9.890;2023-09-07T04:24:32;5.97;;;4.13;;
60030;SDS011;45901;47.600;9.890;2023-09-07T04:26:59;13.03;;;5.10;;
60030;SDS011;45901;47.600;9.890;2023-09-07T04:29:27;7.57;;;4.30;;
60030;SDS011;45901;47.600;9.890;2023-09-07T04:31:56;6.03;;;4.57;;
60030;SDS011;45901;47.600;9.890;2023-09-07T04:34:23;7.23;;;4.60;;
60030;SDS011;45901;47.600;9.890;2023-09-07T04:36:50;5.63;;;4.17;;
60030;SDS011;45901;47.600;9.890;2023-09-07T04:39:17;6.70;;;4.77;;
60030;SDS011;45901;47.600;9.890;2023-09-07T04:41:45;7.00;;;4.33;;
60030;SDS011;45901;47.600;9.890;2023-09-07T04:44:12;5.60;;;4.20;;
60030;SDS011;45901;47.600;9.890;2023-09-07T04:46:39;5.30;;;4.43;;
60030;SDS011;45901;47.600;9.890;2023-09-07T04:49:07;8.37;;;4.40;;
60030;SDS011;45901;47.600;9.890;2023-09-07T04:51:34;6.20;;;4.60;;
60030;SDS011;45901;47.600;9.890;2023-09-07T04:54:01;5.43;;;4.40;;
60030;SDS011;45901;47.600;9.890;2023-09-07T04:56:28;6.10;;;4.43;;
60030;SDS011;45901;47.600;9.890;2023-09-07T04:58:55;5.80;;;4.30;;
60030;SDS011;45901;47.600;9.890;2023-09-07T05:01:22;7.67;;;3.97;;
60030;SDS011;45901;47.600;9.890;2023-09-07T05:03:49;5.40;;;4.03;;
60030;SDS011;45901;47.600;9.890;2023-09-07T05:06:18;8.93;;;4.77;;
60030;SDS011;45901;47.600;9.890;2023-09-07T05:08:46;9.60;;;4.53;;
60030;SDS011;45901;47.600;9.890;2023-09-07T05:11:13;7.27;;;4.57;;
60030;SDS011;45901;47.600;9.890;2023-09-07T05:13:40;5.53;;;4.40;;
60030;SDS011;45901;47.600;9.890;2023-09-07T05:16:07;9.77;;;4.17;;
60030;SDS011;45901;47.600;9.890;2023-09-07T05:18:34;5.57;;;4.23;;
60030;SDS011;45901;47.600;9.890;2023-09-07T05:21:10;5.97;;;3.90;;
60030;SDS011;45901;47.600;9.890;2023-09-07T05:23:39;6.07;;;4.40;;
60030;SDS011;45901;47.600;9.890;2023-09-07T05:26:07;10.93;;;4.93;;
60030;SDS011;45901;47.600;9.890;2023-09-07T05:28:34;11.97;;;5.20;;
60030;SDS011;45901;47.600;9.890;2023-09-07T05:31:01;11.80;;;4.67;;
60030;SDS011;45901;47.600;9.890;2023-09-07T05:33:28;7.30;;;4.67;;
60030;SDS011;45901;47.600;9.890;2023-09-07T05:35:55;9.07;;;5.20;;
60030;SDS011;45901;47.600;9.890;2023-09-07T05:38:22;7.40;;;5.20;;
60030;SDS011;45901;47.600;9.890;2023-09-07T05:40:51;10.90;;;5.40;;
60030;SDS011;45901;47.600;9.890;2023-09-07T05:43:19;16.70;;;6.40;;
60030;SDS011;45901;47.600;9.890;2023-09-07T05:45:46;25.50;;;6.53;;
60030;SDS011;45901;47.600;9.890;2023-09-07T05:48:13;20.50;;;7.10;;
60030;SDS011;45901;47.600;9.890;2023-09-07T05:50:42;17.70;;;5.70;;
60030;SDS011;45901;47.600;9.890;2023-09-07T05:53:10;24.17;;;6.40;;
60030;SDS011;45901;47.600;9.890;2023-09-07T05:55:37;19.40;;;5.77;;
60030;SDS011;45901;47.600;9.890;2023-09-07T05:58:05;21.17;;;6.87;;
60030;SDS011;45901;47.600;9.890;2023-09-07T06:00:34;21.20;;;6.77;;
60030;SDS011;45901;47.600;9.890;2023-09-07T06:03:04;19.20;;;7.30;;
60030;SDS011;45901;47.600;9.890;2023-09-07T06:05:32;20.97;;;6.73;;
60030;SDS011;45901;47.600;9.890;2023-09-07T06:08:00;14.20;;;6.27;;
60030;SDS011;45901;47.600;9.890;2023-09-07T06:10:27;10.57;;;6.43;;
60030;SDS011;45901;47.600;9.890;2023-09-07T06:12:55;11.10;;;6.23;;
60030;SDS011;45901;47.600;9.890;2023-09-07T06:15:24;8.73;;;5.77;;
60030;SDS011;45901;47.600;9.890;2023-09-07T06:17:52;7.57;;;5.50;;
60030;SDS011;45901;47.600;9.890;2023-09-07T06:20:19;16.90;;;6.43;;
60030;SDS011;45901;47.600;9.890;2023-09-07T06:22:46;12.53;;;6.10;;
60030;SDS011;45901;47.600;9.890;2023-09-07T06:25:14;7.93;;;5.33;;
60030;SDS011;45901;47.600;9.890;2023-09-07T06:27:41;11.00;;;5.47;;
60030;SDS011;45901;47.600;9.890;2023-09-07T06:30:08;7.93;;;5.13;;
60030;SDS011;45901;47.600;9.890;2023-09-07T06:32:37;9.23;;;5.77;;
60030;SDS011;45901;47.600;9.890;2023-09-07T06:35:05;10.80;;;5.60;;
60030;SDS011;45901;47.600;9.890;2023-09-07T06:37:33;12.47;;;5.83;;
60030;SDS011;45901;47.600;9.890;2023-09-07T06:40:01;7.70;;;5.33;;
60030;SDS011;45901;47.600;9.890;2023-09-07T06:42:29;7.63;;;5.90;;
60030;SDS011;45901;47.600;9.890;2023-09-07T06:44:56;7.37;;;5.47;;
60030;SDS011;45901;47.600;9.890;2023-09-07T06:47:23;8.47;;;5.70;;
60030;SDS011;45901;47.600;9.890;2023-09-07T06:49:51;7.97;;;5.60;;
60030;SDS011;45901;47.600;9.890;2023-09-07T06:52:19;6.17;;;5.50;;
60030;SDS011;45901;47.600;9.890;2023-09-07T06:54:46;11.57;;;6.00;;
60030;SDS011;45901;47.600;9.890;2023-09-07T06:57:13;8.40;;;5.43;;
60030;SDS011;45901;47.600;9.890;2023-09-07T06:59:40;7.73;;;6.03;;
60030;SDS011;45901;47.600;9.890;2023-09-07T07:02:08;9.07;;;5.70;;
60030;SDS011;45901;47.600;9.890;2023-09-07T07:04:35;7.80;;;6.03;;
60030;SDS011;45901;47.600;9.890;2023-09-07T07:07:03;6.67;;;5.70;;
60030;SDS011;45901;47.600;9.890;2023-09-07T07:09:31;9.53;;;6.00;;
60030;SDS011;45901;47.600;9.890;2023-09-07T07:11:59;14.90;;;6.77;;
60030;SDS011;45901;47.600;9.890;2023-09-07T07:14:27;8.33;;;5.80;;
60030;SDS011;45901;47.600;9.890;2023-09-07T07:16:53;7.33;;;5.60;;
60030;SDS011;45901;47.600;9.890;2023-09-07T07:19:20;8.30;;;5.97;;
60030;SDS011;45901;47.600;9.890;2023-09-07T07:21:48;7.23;;;5.63;;
60030;SDS011;45901;47.600;9.890;2023-09-07T07:24:16;7.17;;;5.83;;
60030;SDS011;45901;47.600;9.890;2023-09-07T07:26:43;8.10;;;5.40;;
60030;SDS011;45901;47.600;9.890;2023-09-07T07:29:10;7.30;;;6.40;;
60030;SDS011;45901;47.600;9.890;2023-09-07T07:31:37;8.27;;;6.00;;
60030;SDS011;45901;47.600;9.890;2023-09-07T07:34:04;7.50;;;5.73;;
60030;SDS011;45901;47.600;9.890;2023-09-07T07:36:31;7.80;;;6.03;;
60030;SDS011;45901;47.600;9.890;2023-09-07T07:38:58;6.10;;;4.90;;
60030;SDS011;45901;47.600;9.890;2023-09-07T07:41:27;9.83;;;5.43;;
60030;SDS011;45901;47.600;9.890;2023-09-07T07:43:54;6.60;;;5.80;;
60030;SDS011;45901;47.600;9.890;2023-09-07T07:46:20;6.17;;;5.57;;
60030;SDS011;45901;47.600;9.890;2023-09-07T07:48:47;7.50;;;5.73;;
60030;SDS011;45901;47.600;9.890;2023-09-07T07:51:14;10.33;;;6.17;;
60030;SDS011;45901;47.600;9.890;2023-09-07T07:53:41;7.17;;;5.93;;
60030;SDS011;45901;47.600;9.890;2023-09-07T07:56:14;8.03;;;6.20;;
60030;SDS011;45901;47.600;9.890;2023-09-07T07:58:43;6.67;;;5.60;;
60030;SDS011;45901;47.600;9.890;2023-09-07T08:01:14;7.80;;;6.37;;
60030;SDS011;45901;47.600;9.890;2023-09-07T08:03:41;8.87;;;6.63;;
60030;SDS011;45901;47.600;9.890;2023-09-07T08:06:09;8.00;;;6.03;;
60030;SDS011;45901;47.600;9.890;2023-09-07T08:08:36;8.70;;;6.20;;
60030;SDS011;45901;47.600;9.890;2023-09-07T08:11:03;11.17;;;6.47;;
60030;SDS011;45901;47.600;9.890;2023-09-07T08:13:31;7.37;;;5.53;;
60030;SDS011;45901;47.600;9.890;2023-09-07T08:16:13;12.23;;;6.50;;
60030;SDS011;45901;47.600;9.890;2023-09-07T08:18:50;9.73;;;6.90;;
60030;SDS011;45901;47.600;9.890;2023-09-07T08:21:39;8.13;;;5.97;;
60030;SDS011;45901;47.600;9.890;2023-09-07T08:24:26;7.27;;;6.03;;
60030;SDS011;45901;47.600;9.890;2023-09-07T08:27:02;7.47;;;5.97;;
60030;SDS011;45901;47.600;9.890;2023-09-07T08:29:29;8.63;;;5.50;;
60030;SDS011;45901;47.600;9.890;2023-09-07T08:31:59;9.20;;;6.00;;
60030;SDS011;45901;47.600;9.890;2023-09-07T08:34:28;10.60;;;5.53;;
60030;SDS011;45901;47.600;9.890;2023-09-07T08:36:56;11.13;;;5.90;;
60030;SDS011;45901;47.600;9.890;2023-09-07T08:39:24;9.40;;;5.57;;
60030;SDS011;45901;47.600;9.890;2023-09-07T08:41:51;10.83;;;6.27;;
60030;SDS011;45901;47.600;9.890;2023-09-07T08:44:18;16.60;;;6.80;;
60030;SDS011;45901;47.600;9.890;2023-09-07T08:46:46;15.87;;;6.97;;
60030;SDS011;45901;47.600;9.890;2023-09-07T08:49:17;8.03;;;5.47;;
60030;SDS011;45901;47.600;9.890;2023-09-07T08:51:45;9.90;;;6.03;;
60030;SDS011;45901;47.600;9.890;2023-09-07T08:54:13;6.20;;;4.97;;
60030;SDS011;45901;47.600;9.890;2023-09-07T08:56:40;8.67;;;5.17;;
60030;SDS011;45901;47.600;9.890;2023-09-07T08:59:07;7.57;;;5.20;;
60030;SDS011;45901;47.600;9.890;2023-09-07T09:01:34;6.03;;;5.20;;
60030;SDS011;45901;47.600;9.890;2023-09-07T09:04:02;5.60;;;4.80;;
60030;SDS011;45901;47.600;9.890;2023-09-07T09:06:31;7.20;;;4.97;;
60030;SDS011;45901;47.600;9.890;2023-09-07T09:08:59;5.60;;;4.27;;
60030;SDS011;45901;47.600;9.890;2023-09-07T09:17:36;7.13;;;4.87;;
60030;SDS011;45901;47.600;9.890;2023-09-07T09:20:04;6.60;;;4.57;;
60030;SDS011;45901;47.600;9.890;2023-09-07T09:22:54;7.57;;;4.97;;
60030;SDS011;45901;47.600;9.890;2023-09-07T09:25:27;8.23;;;4.60;;
60030;SDS011;45901;47.600;9.890;2023-09-07T09:27:57;17.23;;;5.47;;
60030;SDS011;45901;47.600;9.890;2023-09-07T09:30:28;7.90;;;4.60;;
60030;SDS011;45901;47.600;9.890;2023-09-07T09:32:57;6.40;;;4.67;;
60030;SDS011;45901;47.600;9.890;2023-09-07T09:35:34;8.00;;;4.67;;
60030;SDS011;45901;47.600;9.890;2023-09-07T09:38:07;4.97;;;4.37;;
60030;SDS011;45901;47.600;9.890;2023-09-07T09:40:37;5.27;;;4.40;;
60030;SDS011;45901;47.600;9.890;2023-09-07T09:43:09;7.33;;;4.90;;
60030;SDS011;45901;47.600;9.890;2023-09-07T09:45:37;8.43;;;4.70;;
60030;SDS011;45901;47.600;9.890;2023-09-07T09:48:05;7.50;;;4.73;;
60030;SDS011;45901;47.600;9.890;2023-09-07T09:50:33;6.00;;;5.38;;
60030;SDS011;45901;47.600;9.890;2023-09-07T09:53:02;7.88;;;5.60;;
60030;SDS011;45901;47.600;9.890;2023-09-07T09:56:10;8.07;;;5.30;;
60030;SDS011;45901;47.600;9.890;2023-09-07T09:58:42;7.00;;;5.22;;
60030;SDS011;45901;47.600;9.890;2023-09-07T10:02:30;5.93;;;5.32;;
60030;SDS011;45901;47.600;9.890;2023-09-07T10:05:04;6.80;;;5.43;;
60030;SDS011;45901;47.600;9.890;2023-09-07T10:07:51;8.45;;;5.63;;
60030;SDS011;45901;47.600;9.890;2023-09-07T10:13:34;5.57;;;4.90;;
60030;SDS011;45901;47.600;9.890;2023-09-07T10:16:01;7.93;;;5.43;;
60030;SDS011;45901;47.600;9.890;2023-09-07T10:18:37;5.72;;;4.95;;
60030;SDS011;45901;47.600;9.890;2023-09-07T10:21:06;6.00;;;4.97;;
60030;SDS011;45901;47.600;9.890;2023-09-07T10:23:47;7.07;;;4.80;;
60030;SDS011;45901;47.600;9.890;2023-09-07T10:26:20;5.78;;;4.72;;
60030;SDS011;45901;47.600;9.890;2023-09-07T10:29:06;5.90;;;4.47;;
60030;SDS011;45901;47.600;9.890;2023-09-07T10:31:53;7.45;;;5.20;;
60030;SDS011;45901;47.600;9.890;2023-09-07T10:34:21;5.90;;;4.55;;
60030;SDS011;45901;47.600;9.890;2023-09-07T10:37:12;6.50;;;5.07;;
60030;SDS011;45901;47.600;9.890;2023-09-07T10:39:44;7.40;;;5.00;;
60030;SDS011;45901;47.600;9.890;2023-09-07T10:46:18;5.90;;;4.75;;
60030;SDS011;45901;47.600;9.890;2023-09-07T10:48:48;6.32;;;4.72;;
60030;SDS011;45901;47.600;9.890;2023-09-07T10:54:55;6.40;;;4.07;;
60030;SDS011;45901;47.600;9.890;2023-09-07T10:57:24;8.23;;;4.75;;
60030;SDS011;45901;47.600;9.890;2023-09-07T11:00:20;5.30;;;4.60;;
60030;SDS011;45901;47.600;9.890;2023-09-07T11:02:54;6.55;;;4.25;;
60030;SDS011;45901;47.600;9.890;2023-09-07T11:05:21;6.75;;;4.53;;
60030;SDS011;45901;47.600;9.890;2023-09-07T11:07:54;10.00;;;5.18;;
60030;SDS011;45901;47.600;9.890;2023-09-07T11:10:32;6.03;;;4.25;;
60030;SDS011;45901;47.600;9.890;2023-09-07T11:13:46;6.47;;;4.68;;
60030;SDS011;45901;47.600;9.890;2023-09-07T11:16:15;7.72;;;5.35;;
60030;SDS011;45901;47.600;9.890;2023-09-07T11:18:59;6.20;;;5.07;;
60030;SDS011;45901;47.600;9.890;2023-09-07T11:21:48;10.15;;;4.78;;
60030;SDS011;45901;47.600;9.890;2023-09-07T11:24:16;5.70;;;4.35;;
60030;SDS011;45901;47.600;9.890;2023-09-07T11:26:43;6.15;;;4.88;;
60030;SDS011;45901;47.600;9.890;2023-09-07T11:29:14;5.70;;;4.43;;
60030;SDS011;45901;47.600;9.890;2023-09-07T11:31:42;6.05;;;4.75;;
60030;SDS011;45901;47.600;9.890;2023-09-07T11:34:10;7.32;;;4.65;;
60030;SDS011;45901;47.600;9.890;2023-09-07T11:36:39;6.30;;;5.00;;
60030;SDS011;45901;47.600;9.890;2023-09-07T11:39:06;8.35;;;4.88;;
60030;SDS011;45901;47.600;9.890;2023-09-07T11:41:37;6.93;;;5.35;;
60030;SDS011;45901;47.600;9.890;2023-09-07T11:44:06;6.53;;;5.05;;
60030;SDS011;45901;47.600;9.890;2023-09-07T11:46:33;6.22;;;4.65;;
60030;SDS011;45901;47.600;9.890;2023-09-07T11:49:02;5.60;;;5.00;;
60030;SDS011;45901;47.600;9.890;2023-09-07T11:51:30;5.85;;;4.28;;
60030;SDS011;45901;47.600;9.890;2023-09-07T11:53:57;7.50;;;4.88;;
60030;SDS011;45901;47.600;9.890;2023-09-07T11:56:25;6.80;;;4.65;;
60030;SDS011;45901;47.600;9.890;2023-09-07T11:58:52;9.68;;;4.65;;
60030;SDS011;45901;47.600;9.890;2023-09-07T12:01:20;5.47;;;4.40;;
60030;SDS011;45901;47.600;9.890;2023-09-07T12:03:47;7.18;;;4.22;;
60030;SDS011;45901;47.600;9.890;2023-09-07T12:06:15;7.85;;;4.50;;
60030;SDS011;45901;47.600;9.890;2023-09-07T12:08:42;6.13;;;4.30;;
60030;SDS011;45901;47.600;9.890;2023-09-07T12:11:25;5.25;;;4.15;;
60030;SDS011;45901;47.600;9.890;2023-09-07T12:13:52;6.78;;;4.18;;
60030;SDS011;45901;47.600;9.890;2023-09-07T12:16:19;7.32;;;4.20;;
60030;SDS011;45901;47.600;9.890;2023-09-07T12:18:46;4.65;;;3.80;;
60030;SDS011;45901;47.600;9.890;2023-09-07T12:21:12;6.05;;;4.00;;
60030;SDS011;45901;47.600;9.890;2023-09-07T12:23:41;6.50;;;3.75;;
60030;SDS011;45901;47.600;9.890;2023-09-07T12:26:08;6.18;;;3.65;;
60030;SDS011;45901;47.600;9.890;2023-09-07T12:28:35;7.15;;;4.00;;
60030;SDS011;45901;47.600;9.890;2023-09-07T12:31:02;10.75;;;4.47;;
60030;SDS011;45901;47.600;9.890;2023-09-07T12:33:30;6.05;;;3.70;;
60030;SDS011;45901;47.600;9.890;2023-09-07T12:35:57;9.05;;;3.95;;
60030;SDS011;45901;47.600;9.890;2023-09-07T12:38:25;5.20;;;4.03;;
60030;SDS011;45901;47.600;9.890;2023-09-07T12:40:54;3.78;;;3.40;;
60030;SDS011;45901;47.600;9.890;2023-09-07T12:43:21;6.00;;;3.75;;
60030;SDS011;45901;47.600;9.890;2023-09-07T12:45:49;5.45;;;3.03;;
60030;SDS011;45901;47.600;9.890;2023-09-07T12:48:16;3.97;;;3.40;;
60030;SDS011;45901;47.600;9.890;2023-09-07T12:50:45;5.53;;;3.40;;
60030;SDS011;45901;47.600;9.890;2023-09-07T12:53:12;4.60;;;3.63;;
60030;SDS011;45901;47.600;9.890;2023-09-07T12:55:39;6.72;;;3.78;;
60030;SDS011;45901;47.600;9.890;2023-09-07T12:58:07;7.55;;;3.30;;
60030;SDS011;45901;47.600;9.890;2023-09-07T13:00:34;4.25;;;3.40;;
60030;SDS011;45901;47.600;9.890;2023-09-07T13:03:01;6.90;;;3.78;;
60030;SDS011;45901;47.600;9.890;2023-09-07T13:05:28;5.03;;;4.30;;
60030;SDS011;45901;47.600;9.890;2023-09-07T13:07:55;5.05;;;3.70;;
60030;SDS011;45901;47.600;9.890;2023-09-07T13:10:24;5.38;;;3.70;;
60030;SDS011;45901;47.600;9.890;2023-09-07T13:12:51;4.53;;;3.42;;
60030;SDS011;45901;47.600;9.890;2023-09-07T13:15:20;6.25;;;4.38;;
60030;SDS011;45901;47.600;9.890;2023-09-07T13:17:47;4.82;;;3.50;;
60030;SDS011;45901;47.600;9.890;2023-09-07T13:20:14;4.90;;;3.70;;
60030;SDS011;45901;47.600;9.890;2023-09-07T13:22:42;7.22;;;3.72;;
60030;SDS011;45901;47.600;9.890;2023-09-07T13:25:09;5.47;;;4.03;;
60030;SDS011;45901;47.600;9.890;2023-09-07T13:27:36;8.18;;;4.20;;
60030;SDS011;45901;47.600;9.890;2023-09-07T13:30:03;6.47;;;3.92;;
60030;SDS011;45901;47.600;9.890;2023-09-07T13:32:34;4.85;;;3.95;;
60030;SDS011;45901;47.600;9.890;2023-09-07T13:35:01;5.32;;;4.18;;
60030;SDS011;45901;47.600;9.890;2023-09-07T13:37:28;4.63;;;4.13;;
60030;SDS011;45901;47.600;9.890;2023-09-07T13:39:55;5.93;;;4.30;;
60030;SDS011;45901;47.600;9.890;2023-09-07T13:42:22;4.38;;;3.72;;
60030;SDS011;45901;47.600;9.890;2023-09-07T13:44:51;8.80;;;3.83;;
60030;SDS011;45901;47.600;9.890;2023-09-07T13:47:18;7.47;;;3.92;;
60030;SDS011;45901;47.600;9.890;2023-09-07T13:49:46;8.75;;;4.07;;
60030;SDS011;45901;47.600;9.890;2023-09-07T13:52:13;8.38;;;4.03;;
60030;SDS011;45901;47.600;9.890;2023-09-07T13:54:40;6.07;;;4.07;;
60030;SDS011;45901;47.600;9.890;2023-09-07T13:57:07;7.88;;;3.83;;
60030;SDS011;45901;47.600;9.890;2023-09-07T13:59:34;5.45;;;3.90;;
60030;SDS011;45901;47.600;9.890;2023-09-07T14:02:01;5.10;;;4.15;;
60030;SDS011;45901;47.600;9.890;2023-09-07T14:04:28;5.47;;;3.53;;
60030;SDS011;45901;47.600;9.890;2023-09-07T14:06:57;5.32;;;3.90;;
60030;SDS011;45901;47.600;9.890;2023-09-07T14:09:24;4.50;;;3.70;;
60030;SDS011;45901;47.600;9.890;2023-09-07T14:11:51;5.13;;;4.38;;
60030;SDS011;45901;47.600;9.890;2023-09-07T14:14:18;5.90;;;3.53;;
60030;SDS011;45901;47.600;9.890;2023-09-07T14:16:46;6.22;;;3.95;;
60030;SDS011;45901;47.600;9.890;2023-09-07T14:19:15;4.72;;;3.67;;
60030;SDS011;45901;47.600;9.890;2023-09-07T14:21:42;5.18;;;4.00;;
60030;SDS011;45901;47.600;9.890;2023-09-07T14:24:10;7.15;;;4.50;;
60030;SDS011;45901;47.600;9.890;2023-09-07T14:26:37;7.40;;;4.22;;
60030;SDS011;45901;47.600;9.890;2023-09-07T14:29:04;6.97;;;4.60;;
60030;SDS011;45901;47.600;9.890;2023-09-07T14:31:31;6.97;;;4.43;;
60030;SDS011;45901;47.600;9.890;2023-09-07T14:33:58;5.45;;;4.32;;
60030;SDS011;45901;47.600;9.890;2023-09-07T14:36:25;5.53;;;4.22;;
60030;SDS011;45901;47.600;9.890;2023-09-07T14:38:52;8.43;;;4.63;;
60030;SDS011;45901;47.600;9.890;2023-09-07T14:41:20;5.03;;;4.10;;
60030;SDS011;45901;47.600;9.890;2023-09-07T14:43:48;7.10;;;5.05;;
60030;SDS011;45901;47.600;9.890;2023-09-07T14:46:15;7.47;;;4.78;;
60030;SDS011;45901;47.600;9.890;2023-09-07T14:48:43;5.05;;;4.20;;
60030;SDS011;45901;47.600;9.890;2023-09-07T14:51:17;5.20;;;4.32;;
60030;SDS011;45901;47.600;9.890;2023-09-07T14:53:45;7.07;;;4.38;;
60030;SDS011;45901;47.600;9.890;2023-09-07T14:56:12;6.55;;;4.43;;
60030;SDS011;45901;47.600;9.890;2023-09-07T14:58:40;5.90;;;4.75;;
60030;SDS011;45901;47.600;9.890;2023-09-07T15:01:07;5.25;;;4.38;;
60030;SDS011;45901;47.600;9.890;2023-09-07T15:03:34;5.22;;;4.07;;
60030;SDS011;45901;47.600;9.890;2023-09-07T15:06:05;5.68;;;4.30;;
60030;SDS011;45901;47.600;9.890;2023-09-07T15:08:32;5.60;;;4.03;;
60030;SDS011;45901;47.600;9.890;2023-09-07T15:10:59;7.90;;;4.53;;
60030;SDS011;45901;47.600;9.890;2023-09-07T15:13:27;6.53;;;4.93;;
60030;SDS011;45901;47.600;9.890;2023-09-07T15:15:55;6.20;;;4.47;;
60030;SDS011;45901;47.600;9.890;2023-09-07T15:18:22;6.47;;;4.72;;
60030;SDS011;45901;47.600;9.890;2023-09-07T15:20:49;7.07;;;4.72;;
60030;SDS011;45901;47.600;9.890;2023-09-07T15:23:16;7.93;;;4.68;;